KAC612 OKKK-ENGM
Flight info
| Callsign | KAC612 |
|---|---|
| Flight time | N/A |
| Altitude | 38000 |
| Route | RALKA L602 GADSI M860 VUSEB/N0490F400 M860 NINVA UM860 ODALI UL852 NEGEM DCT ARGES DCT KENIN DCT UNBEK DCT PENOR DCT KSD Z259 ESEBA |
| Aircraft | A359/H-SDE2E3GHIJ3J4J5LM1ORWXY/LB1D1 |
Departure
| Time | 2026-05-04 14:44 |
|---|---|
| Airport | Kuwait International Airport (OKKK) |
Arrival
| Time | N/A |
|---|---|
| Airport | Oslo-Gardermoen International Airport (ENGM) |
| Time | Latitude | Longitude | Altitude | Speed | Heading |
|---|---|---|---|---|---|
| 2026-05-04 13:42 | 29.25025 | 47.96019 | 176 ft | 0 kts | 68° |
| 2026-05-04 13:53 | 29.25025 | 47.96018 | 176 ft | 0 kts | 68° |
| 2026-05-04 14:06 | 29.25025 | 47.96017 | 176 ft | 0 kts | 68° |
| 2026-05-04 14:15 | 29.25024 | 47.96017 | 176 ft | 0 kts | 68° |
| 2026-05-04 14:19 | 29.25024 | 47.96016 | 176 ft | 0 kts | 68° |
| 2026-05-04 14:31 | 29.25024 | 47.96015 | 175 ft | 0 kts | 68° |
| 2026-05-04 14:35 | 29.25023 | 47.96014 | 175 ft | 3 kts | 68° |
| 2026-05-04 14:35 | 29.25016 | 47.95993 | 175 ft | 3 kts | 68° |
| 2026-05-04 14:35 | 29.25012 | 47.95982 | 175 ft | 0 kts | 71° |
| 2026-05-04 14:36 | 29.25008 | 47.95963 | 174 ft | 3 kts | 89° |
| 2026-05-04 14:36 | 29.25010 | 47.95940 | 173 ft | 3 kts | 106° |
| 2026-05-04 14:36 | 29.25016 | 47.95919 | 173 ft | 3 kts | 120° |
| 2026-05-04 14:36 | 29.25028 | 47.95901 | 172 ft | 3 kts | 140° |
| 2026-05-04 14:37 | 29.25038 | 47.95893 | 172 ft | 0 kts | 153° |
| 2026-05-04 14:39 | 29.25026 | 47.95898 | 172 ft | 7 kts | 161° |
| 2026-05-04 14:39 | 29.24975 | 47.95919 | 172 ft | 9 kts | 160° |
| 2026-05-04 14:39 | 29.24912 | 47.95944 | 171 ft | 10 kts | 160° |
| 2026-05-04 14:40 | 29.24768 | 47.96020 | 171 ft | 12 kts | 155° |
| 2026-05-04 14:40 | 29.24686 | 47.96063 | 171 ft | 13 kts | 155° |
| 2026-05-04 14:40 | 29.24598 | 47.96110 | 171 ft | 15 kts | 155° |
| 2026-05-04 14:40 | 29.24503 | 47.96161 | 171 ft | 16 kts | 155° |
| 2026-05-04 14:41 | 29.24402 | 47.96215 | 171 ft | 17 kts | 155° |
| 2026-05-04 14:41 | 29.24295 | 47.96273 | 171 ft | 18 kts | 155° |
| 2026-05-04 14:41 | 29.24129 | 47.96229 | 166 ft | 14 kts | 230° |
| 2026-05-04 14:42 | 29.23944 | 47.96208 | 164 ft | 11 kts | 156° |
| 2026-05-04 14:42 | 29.23936 | 47.96213 | 164 ft | 0 kts | 154° |
| 2026-05-04 14:43 | 29.23918 | 47.96223 | 165 ft | 14 kts | 154° |
| 2026-05-04 14:43 | 29.23912 | 47.96226 | 165 ft | 18 kts | 154° |
| 2026-05-04 14:43 | 29.23753 | 47.96311 | 165 ft | 27 kts | 155° |
| 2026-05-04 14:44 | 29.23412 | 47.96493 | 169 ft | 85 kts | 155° |
| 2026-05-04 14:44 | 29.22692 | 47.96876 | 169 ft | 141 kts | 155° |
| 2026-05-04 14:44 | 29.21707 | 47.97388 | 574 ft | 155 kts | 153° |
| 2026-05-04 14:44 | 29.20722 | 47.97878 | 1232 ft | 155 kts | 153° |
| 2026-05-04 14:45 | 29.19773 | 47.98548 | 1455 ft | 168 kts | 133° |
| 2026-05-04 14:45 | 29.19125 | 47.99717 | 1564 ft | 183 kts | 115° |
| 2026-05-04 14:45 | 29.18585 | 48.01110 | 1712 ft | 202 kts | 113° |
| 2026-05-04 14:45 | 29.18004 | 48.02663 | 1890 ft | 222 kts | 112° |
| 2026-05-04 14:46 | 29.17371 | 48.04360 | 2141 ft | 240 kts | 112° |
| 2026-05-04 14:46 | 29.16689 | 48.06146 | 2466 ft | 254 kts | 113° |
| 2026-05-04 14:46 | 29.15952 | 48.08003 | 3000 ft | 259 kts | 113° |
| 2026-05-04 14:46 | 29.15263 | 48.09929 | 3484 ft | 264 kts | 106° |
| 2026-05-04 14:47 | 29.15033 | 48.12030 | 3955 ft | 270 kts | 92° |
| 2026-05-04 14:47 | 29.15026 | 48.14197 | 4463 ft | 275 kts | 90° |
| 2026-05-04 14:47 | 29.15047 | 48.16400 | 4935 ft | 280 kts | 89° |
| 2026-05-04 14:47 | 29.15069 | 48.18647 | 5387 ft | 285 kts | 89° |
| 2026-05-04 14:48 | 29.15088 | 48.20936 | 5853 ft | 290 kts | 89° |
| 2026-05-04 14:48 | 29.15100 | 48.23266 | 6336 ft | 293 kts | 89° |
| 2026-05-04 14:48 | 29.15110 | 48.25608 | 6847 ft | 295 kts | 89° |
| 2026-05-04 14:48 | 29.15198 | 48.27966 | 7319 ft | 298 kts | 82° |
| 2026-05-04 14:49 | 29.15790 | 48.30241 | 7788 ft | 300 kts | 62° |
| 2026-05-04 14:49 | 29.16574 | 48.31539 | 8080 ft | 301 kts | 45° |
| 2026-05-04 14:49 | 29.18260 | 48.32904 | 8553 ft | 298 kts | 18° |
| 2026-05-04 14:49 | 29.20940 | 48.33172 | 9230 ft | 292 kts | 352° |
| 2026-05-04 14:50 | 29.22974 | 48.32935 | 9762 ft | 294 kts | 351° |
| 2026-05-04 14:50 | 29.24355 | 48.32791 | 10088 ft | 297 kts | 351° |
| 2026-05-04 14:50 | 29.26458 | 48.32613 | 10333 ft | 310 kts | 352° |
| 2026-05-04 14:50 | 29.28623 | 48.32402 | 10519 ft | 322 kts | 351° |
| 2026-05-04 14:51 | 29.30900 | 48.32119 | 10702 ft | 335 kts | 350° |
| 2026-05-04 14:51 | 29.33259 | 48.31813 | 10876 ft | 347 kts | 349° |
| 2026-05-04 14:51 | 29.35700 | 48.31501 | 11057 ft | 358 kts | 350° |
| 2026-05-04 14:51 | 29.38218 | 48.31186 | 11225 ft | 369 kts | 350° |
| 2026-05-04 14:52 | 29.40809 | 48.30865 | 11430 ft | 377 kts | 349° |
| 2026-05-04 14:52 | 29.43389 | 48.30318 | 11747 ft | 377 kts | 340° |
| 2026-05-04 14:52 | 29.45817 | 48.29206 | 12129 ft | 375 kts | 330° |
| 2026-05-04 14:52 | 29.48133 | 48.27846 | 12545 ft | 375 kts | 327° |
| 2026-05-04 14:53 | 29.50403 | 48.26358 | 12929 ft | 376 kts | 325° |
| 2026-05-04 14:53 | 29.52654 | 48.24810 | 13315 ft | 378 kts | 324° |
| 2026-05-04 14:53 | 29.54914 | 48.23242 | 13694 ft | 379 kts | 324° |
| 2026-05-04 14:53 | 29.57181 | 48.21685 | 14050 ft | 381 kts | 324° |
| 2026-05-04 14:54 | 29.59469 | 48.20137 | 14409 ft | 382 kts | 325° |
| 2026-05-04 14:54 | 29.61744 | 48.18617 | 14770 ft | 384 kts | 325° |
| 2026-05-04 14:54 | 29.64065 | 48.17080 | 15142 ft | 385 kts | 325° |
| 2026-05-04 14:54 | 29.66392 | 48.15545 | 15510 ft | 387 kts | 325° |
| 2026-05-04 14:55 | 29.68734 | 48.14003 | 15882 ft | 388 kts | 325° |
| 2026-05-04 14:55 | 29.71084 | 48.12455 | 16250 ft | 390 kts | 325° |
| 2026-05-04 14:55 | 29.73442 | 48.10898 | 16633 ft | 391 kts | 325° |
| 2026-05-04 14:55 | 29.75806 | 48.09337 | 17026 ft | 392 kts | 325° |
| 2026-05-04 14:56 | 29.78178 | 48.07769 | 17389 ft | 394 kts | 325° |
| 2026-05-04 14:56 | 29.80559 | 48.06194 | 17761 ft | 395 kts | 325° |
| 2026-05-04 14:56 | 29.82950 | 48.04610 | 18112 ft | 397 kts | 325° |
| 2026-05-04 14:56 | 29.85351 | 48.03019 | 18409 ft | 399 kts | 325° |
| 2026-05-04 14:57 | 29.87764 | 48.01418 | 18707 ft | 401 kts | 325° |
| 2026-05-04 14:57 | 29.90191 | 47.99808 | 19003 ft | 403 kts | 325° |
| 2026-05-04 14:57 | 29.92623 | 47.98193 | 19294 ft | 404 kts | 325° |
| 2026-05-04 14:57 | 29.95033 | 47.96592 | 19580 ft | 406 kts | 324° |
| 2026-05-04 14:58 | 29.97493 | 47.94958 | 19883 ft | 408 kts | 324° |
| 2026-05-04 14:58 | 29.99942 | 47.93285 | 20161 ft | 408 kts | 322° |
| 2026-05-04 14:58 | 30.02210 | 47.91351 | 20441 ft | 405 kts | 314° |
| 2026-05-04 14:58 | 30.04234 | 47.89114 | 20746 ft | 403 kts | 309° |
| 2026-05-04 14:59 | 30.06144 | 47.86751 | 21034 ft | 402 kts | 307° |
| 2026-05-04 14:59 | 30.07985 | 47.84333 | 21307 ft | 403 kts | 306° |
| 2026-05-04 14:59 | 30.11641 | 47.79363 | 21883 ft | 406 kts | 306° |
| 2026-05-04 15:00 | 30.13472 | 47.76871 | 22168 ft | 407 kts | 306° |
| 2026-05-04 15:00 | 30.15313 | 47.74380 | 22439 ft | 409 kts | 306° |
| 2026-05-04 15:00 | 30.17168 | 47.71882 | 22717 ft | 410 kts | 306° |
| 2026-05-04 15:01 | 30.20914 | 47.66864 | 23260 ft | 413 kts | 306° |
| 2026-05-04 15:01 | 30.22775 | 47.64374 | 23465 ft | 415 kts | 306° |
| 2026-05-04 15:01 | 30.24664 | 47.61843 | 23675 ft | 416 kts | 306° |
| 2026-05-04 15:01 | 30.26559 | 47.59303 | 23907 ft | 418 kts | 306° |
| 2026-05-04 15:02 | 30.28457 | 47.56757 | 24116 ft | 419 kts | 306° |
| 2026-05-04 15:02 | 30.30364 | 47.54198 | 24312 ft | 421 kts | 306° |
| 2026-05-04 15:02 | 30.32275 | 47.51632 | 24523 ft | 422 kts | 306° |
| 2026-05-04 15:02 | 30.34195 | 47.49052 | 24738 ft | 423 kts | 306° |
| 2026-05-04 15:03 | 30.36117 | 47.46468 | 24959 ft | 424 kts | 306° |
| 2026-05-04 15:03 | 30.38045 | 47.43873 | 25169 ft | 425 kts | 305° |
| 2026-05-04 15:03 | 30.39979 | 47.41267 | 25386 ft | 427 kts | 305° |
| 2026-05-04 15:03 | 30.41917 | 47.38654 | 25604 ft | 428 kts | 305° |
| 2026-05-04 15:04 | 30.43859 | 47.36034 | 25827 ft | 429 kts | 305° |
| 2026-05-04 15:04 | 30.45805 | 47.33407 | 26044 ft | 430 kts | 305° |
| 2026-05-04 15:04 | 30.47735 | 47.30800 | 26258 ft | 431 kts | 305° |
| 2026-05-04 15:04 | 30.49693 | 47.28154 | 26478 ft | 432 kts | 305° |
| 2026-05-04 15:05 | 30.51654 | 47.25502 | 26705 ft | 433 kts | 305° |
| 2026-05-04 15:05 | 30.53620 | 47.22843 | 26934 ft | 434 kts | 305° |
| 2026-05-04 15:05 | 30.55612 | 47.20199 | 27157 ft | 438 kts | 307° |
| 2026-05-04 15:05 | 30.57838 | 47.17733 | 27382 ft | 444 kts | 313° |
| 2026-05-04 15:06 | 30.60192 | 47.15402 | 27632 ft | 446 kts | 314° |
| 2026-05-04 15:06 | 30.62598 | 47.13115 | 27865 ft | 449 kts | 314° |
| 2026-05-04 15:06 | 30.65042 | 47.10839 | 28110 ft | 450 kts | 315° |
| 2026-05-04 15:07 | 30.69967 | 47.06288 | 28588 ft | 454 kts | 315° |
| 2026-05-04 15:07 | 30.72443 | 47.03992 | 28849 ft | 455 kts | 315° |
| 2026-05-04 15:07 | 30.74918 | 47.01689 | 29098 ft | 457 kts | 314° |
| 2026-05-04 15:07 | 30.77367 | 46.99401 | 29331 ft | 458 kts | 314° |
| 2026-05-04 15:08 | 30.79852 | 46.97074 | 29572 ft | 459 kts | 314° |
| 2026-05-04 15:08 | 30.82352 | 46.94729 | 29813 ft | 461 kts | 314° |
| 2026-05-04 15:08 | 30.84850 | 46.92383 | 30012 ft | 462 kts | 314° |
| 2026-05-04 15:08 | 30.87364 | 46.90021 | 30224 ft | 464 kts | 314° |
| 2026-05-04 15:09 | 30.89885 | 46.87651 | 30441 ft | 465 kts | 314° |
| 2026-05-04 15:09 | 30.92406 | 46.85281 | 30653 ft | 466 kts | 314° |
| 2026-05-04 15:09 | 30.94930 | 46.82906 | 30868 ft | 467 kts | 313° |
| 2026-05-04 15:10 | 30.99973 | 46.78153 | 31277 ft | 470 kts | 313° |
| 2026-05-04 15:10 | 31.02518 | 46.75754 | 31516 ft | 470 kts | 313° |
| 2026-05-04 15:10 | 31.07605 | 46.70957 | 32118 ft | 468 kts | 313° |
| 2026-05-04 15:11 | 31.10130 | 46.68573 | 32406 ft | 467 kts | 313° |
| 2026-05-04 15:11 | 31.12659 | 46.66183 | 32696 ft | 466 kts | 313° |
| 2026-05-04 15:11 | 31.15179 | 46.63798 | 32986 ft | 466 kts | 313° |
| 2026-05-04 15:11 | 31.17695 | 46.61415 | 33279 ft | 465 kts | 313° |
| 2026-05-04 15:12 | 31.20206 | 46.59034 | 33575 ft | 465 kts | 312° |
| 2026-05-04 15:12 | 31.22713 | 46.56657 | 33851 ft | 464 kts | 312° |
| 2026-05-04 15:12 | 31.25219 | 46.54278 | 34082 ft | 464 kts | 312° |
| 2026-05-04 15:12 | 31.27695 | 46.51926 | 34299 ft | 464 kts | 312° |
| 2026-05-04 15:13 | 31.30196 | 46.49548 | 34527 ft | 464 kts | 312° |
| 2026-05-04 15:13 | 31.32701 | 46.47165 | 34707 ft | 465 kts | 312° |
| 2026-05-04 15:13 | 31.35214 | 46.44772 | 34755 ft | 464 kts | 311° |
| 2026-05-04 15:14 | 31.40223 | 46.39997 | 34753 ft | 465 kts | 311° |
| 2026-05-04 15:14 | 31.45244 | 46.35205 | 34757 ft | 465 kts | 311° |
| 2026-05-04 15:15 | 31.50231 | 46.30438 | 34760 ft | 465 kts | 311° |
| 2026-05-04 15:15 | 31.55250 | 46.25636 | 34766 ft | 465 kts | 311° |
| 2026-05-04 15:16 | 31.62776 | 46.18423 | 34769 ft | 465 kts | 311° |
| 2026-05-04 15:17 | 31.70294 | 46.11194 | 34773 ft | 465 kts | 311° |
| 2026-05-04 15:17 | 31.77762 | 46.03972 | 34778 ft | 464 kts | 311° |
| 2026-05-04 15:18 | 31.82702 | 45.99079 | 34781 ft | 464 kts | 311° |
| 2026-05-04 15:19 | 31.90104 | 45.91709 | 34791 ft | 464 kts | 310° |
| 2026-05-04 15:19 | 31.97507 | 45.84339 | 34796 ft | 464 kts | 310° |
| 2026-05-04 15:20 | 32.02410 | 45.79453 | 34796 ft | 464 kts | 310° |
| 2026-05-04 15:20 | 32.07344 | 45.74530 | 34794 ft | 465 kts | 310° |
| 2026-05-04 15:21 | 32.12282 | 45.69594 | 34800 ft | 465 kts | 310° |
| 2026-05-04 15:22 | 32.19691 | 45.62177 | 34808 ft | 465 kts | 310° |
| 2026-05-04 15:22 | 32.27095 | 45.54748 | 34815 ft | 465 kts | 310° |
| 2026-05-04 15:23 | 32.32014 | 45.49803 | 34817 ft | 466 kts | 310° |
| 2026-05-04 15:23 | 32.36949 | 45.44834 | 34818 ft | 466 kts | 310° |
| 2026-05-04 15:24 | 32.46789 | 45.34904 | 34823 ft | 466 kts | 310° |
| 2026-05-04 15:25 | 32.51714 | 45.29926 | 34825 ft | 466 kts | 310° |
| 2026-05-04 15:26 | 32.59572 | 45.22901 | 34830 ft | 475 kts | 316° |
| 2026-05-04 15:26 | 32.67801 | 45.16378 | 34834 ft | 476 kts | 316° |
| 2026-05-04 15:27 | 32.76066 | 45.09851 | 34838 ft | 475 kts | 316° |
| 2026-05-04 15:28 | 32.84314 | 45.03285 | 34839 ft | 475 kts | 316° |
| 2026-05-04 15:29 | 32.92557 | 44.96702 | 34843 ft | 476 kts | 316° |
| 2026-05-04 15:30 | 33.11746 | 44.81325 | 34844 ft | 476 kts | 316° |
| 2026-05-04 15:31 | 33.20286 | 44.75110 | 34853 ft | 493 kts | 327° |
| 2026-05-04 15:32 | 33.30729 | 44.72849 | 34857 ft | 524 kts | 348° |
| 2026-05-04 15:32 | 33.38024 | 44.72635 | 34862 ft | 526 kts | 350° |
| 2026-05-04 15:34 | 33.56335 | 44.72257 | 34863 ft | 525 kts | 349° |
| 2026-05-04 15:34 | 33.67299 | 44.71909 | 34862 ft | 526 kts | 349° |
| 2026-05-04 15:35 | 33.78269 | 44.71558 | 34871 ft | 527 kts | 349° |
| 2026-05-04 15:36 | 33.89270 | 44.71210 | 34864 ft | 527 kts | 349° |
| 2026-05-04 15:36 | 33.96570 | 44.70978 | 34866 ft | 528 kts | 349° |
| 2026-05-04 15:37 | 34.02723 | 44.70783 | 34865 ft | 528 kts | 349° |
| 2026-05-04 15:37 | 34.10050 | 44.70552 | 34870 ft | 528 kts | 349° |
| 2026-05-04 15:38 | 34.17374 | 44.70319 | 34868 ft | 528 kts | 349° |
| 2026-05-04 15:38 | 34.24727 | 44.70085 | 34865 ft | 529 kts | 349° |
| 2026-05-04 15:39 | 34.32113 | 44.69849 | 34865 ft | 529 kts | 349° |
| 2026-05-04 15:40 | 34.43174 | 44.69495 | 34869 ft | 529 kts | 349° |
| 2026-05-04 15:40 | 34.50418 | 44.68834 | 34867 ft | 515 kts | 339° |
| 2026-05-04 15:40 | 34.53819 | 44.67716 | 34871 ft | 504 kts | 331° |
| 2026-05-04 15:41 | 34.57130 | 44.66302 | 34865 ft | 501 kts | 329° |
| 2026-05-04 15:41 | 34.63597 | 44.63223 | 34859 ft | 499 kts | 327° |
| 2026-05-04 15:42 | 34.70046 | 44.60033 | 34867 ft | 499 kts | 327° |
| 2026-05-04 15:42 | 34.76476 | 44.56884 | 34870 ft | 500 kts | 327° |
| 2026-05-04 15:43 | 34.82949 | 44.53747 | 34869 ft | 501 kts | 327° |
| 2026-05-04 15:43 | 34.89434 | 44.50612 | 34856 ft | 502 kts | 327° |
| 2026-05-04 15:44 | 34.95956 | 44.47453 | 34868 ft | 502 kts | 327° |
| 2026-05-04 15:44 | 35.02417 | 44.44317 | 34865 ft | 503 kts | 327° |
| 2026-05-04 15:45 | 35.08950 | 44.41139 | 34862 ft | 503 kts | 327° |
| 2026-05-04 15:45 | 35.15438 | 44.37977 | 34866 ft | 503 kts | 327° |
| 2026-05-04 15:46 | 35.21912 | 44.34817 | 34862 ft | 503 kts | 327° |
| 2026-05-04 15:46 | 35.28406 | 44.31639 | 34863 ft | 503 kts | 327° |
| 2026-05-04 15:47 | 35.34888 | 44.28356 | 34861 ft | 502 kts | 326° |
| 2026-05-04 15:47 | 35.41318 | 44.25028 | 34856 ft | 502 kts | 326° |
| 2026-05-04 15:48 | 35.47735 | 44.21703 | 34857 ft | 503 kts | 326° |
| 2026-05-04 15:48 | 35.57426 | 44.16694 | 34855 ft | 503 kts | 326° |
| 2026-05-04 15:49 | 35.63882 | 44.13354 | 34856 ft | 504 kts | 326° |
| 2026-05-04 15:49 | 35.70349 | 44.10001 | 34846 ft | 504 kts | 326° |
| 2026-05-04 15:50 | 35.76804 | 44.06650 | 34843 ft | 504 kts | 326° |
| 2026-05-04 15:50 | 35.83271 | 44.03286 | 34850 ft | 505 kts | 326° |
| 2026-05-04 15:51 | 35.89764 | 43.99902 | 34851 ft | 506 kts | 326° |
| 2026-05-04 15:51 | 35.96257 | 43.96512 | 34859 ft | 507 kts | 326° |
| 2026-05-04 15:52 | 36.02722 | 43.93130 | 34871 ft | 507 kts | 326° |
| 2026-05-04 15:52 | 36.09233 | 43.89718 | 34878 ft | 508 kts | 326° |
| 2026-05-04 15:53 | 36.15750 | 43.86296 | 34883 ft | 509 kts | 326° |
| 2026-05-04 15:53 | 36.22269 | 43.82867 | 34885 ft | 510 kts | 327° |
| 2026-05-04 15:54 | 36.28815 | 43.79423 | 34880 ft | 511 kts | 327° |
| 2026-05-04 15:54 | 36.35378 | 43.76016 | 34872 ft | 513 kts | 327° |
| 2026-05-04 15:55 | 36.41960 | 43.72618 | 34865 ft | 514 kts | 327° |
| 2026-05-04 15:55 | 36.48585 | 43.69184 | 34861 ft | 514 kts | 327° |
| 2026-05-04 15:56 | 36.55165 | 43.65762 | 34865 ft | 515 kts | 327° |
| 2026-05-04 15:56 | 36.61765 | 43.62322 | 34877 ft | 516 kts | 327° |
| 2026-05-04 15:57 | 36.68408 | 43.58854 | 34884 ft | 516 kts | 327° |
| 2026-05-04 15:57 | 36.75023 | 43.55386 | 34894 ft | 516 kts | 327° |
| 2026-05-04 15:58 | 36.81577 | 43.51786 | 34905 ft | 516 kts | 326° |
| 2026-05-04 15:58 | 36.88148 | 43.48084 | 34911 ft | 516 kts | 326° |
| 2026-05-04 15:59 | 36.94679 | 43.44411 | 34927 ft | 517 kts | 326° |
| 2026-05-04 15:59 | 37.01261 | 43.40709 | 34929 ft | 517 kts | 326° |
| 2026-05-04 16:00 | 37.07805 | 43.37029 | 34939 ft | 518 kts | 326° |
| 2026-05-04 16:00 | 37.14391 | 43.33324 | 34949 ft | 519 kts | 326° |
| 2026-05-04 16:01 | 37.20983 | 43.29610 | 34955 ft | 520 kts | 326° |
| 2026-05-04 16:01 | 37.27576 | 43.25884 | 34962 ft | 521 kts | 326° |
| 2026-05-04 16:02 | 37.30749 | 43.23795 | 34962 ft | 510 kts | 319° |
| 2026-05-04 16:02 | 37.33601 | 43.21220 | 34966 ft | 497 kts | 309° |
| 2026-05-04 16:02 | 37.37951 | 43.14827 | 34966 ft | 471 kts | 291° |
| 2026-05-04 16:03 | 37.39602 | 43.11281 | 34971 ft | 468 kts | 289° |
| 2026-05-04 16:03 | 37.42662 | 43.04099 | 34975 ft | 466 kts | 288° |
| 2026-05-04 16:04 | 37.45639 | 42.96896 | 34954 ft | 464 kts | 288° |
| 2026-05-04 16:04 | 37.50155 | 42.86078 | 34971 ft | 466 kts | 288° |
| 2026-05-04 16:05 | 37.53218 | 42.78847 | 34967 ft | 466 kts | 289° |